Latest Weather Observations for Coolangatta

IDQ60801

Issued at 7:05 pm EST Friday 24 October 2014 (issued every 30 minutes, with the page automatically refreshed every 10 minutes)

About weather observations | Map of weather stations | Latest weather observations for QLD | Other Formats
Station Details ID: 040717 Name: COOLANGATTA Lat: -28.17 Lon: 153.51 Height: 4.0 m
Data from the previous 72 hours. | See also: Recent months at Coolangatta
Date/Time
EST
Temp
°C
App
Temp
°C
Dew
Point
Rel
Hum
%
Delta-T
°C
Wind Press
QNH
hPa
Press
MSL
hPa
Rain
since 9 am
mm
Dir
 
Spd
km/h
Gust
km/h
Spd
kts
Gust
kts
24/07:00pm 21.7 19.8 15.8 69 3.5 N 20 30 11 16 1021.6 1021.6 0.0
24/06:30pm 21.7 18.7 15.8 69 3.5 N 26 32 14 17 1021.3 1021.3 0.0
24/06:00pm 21.7 19.0 15.5 68 3.7 N 24 30 13 16 1021.1 1021.1 0.0
24/05:30pm 21.7 18.8 15.1 66 3.9 N 24 30 13 16 1020.6 1020.6 0.0
24/05:00pm 22.5 19.8 14.6 61 4.6 NNE 22 28 12 15 1020.3 1020.3 0.0
24/04:30pm 22.8 19.7 14.6 60 4.8 N 24 30 13 16 1020.2 1020.2 0.0
24/04:00pm 23.5 20.3 15.3 60 4.9 NNE 26 32 14 17 1019.9 1019.9 0.0
24/03:30pm 23.3 20.2 14.6 58 5.1 NNE 24 28 13 15 1020.0 1020.0 0.0
24/03:00pm 23.5 20.4 14.5 57 5.3 NNE 24 30 13 16 1020.2 1020.2 0.0
24/02:30pm 23.9 20.8 14.6 56 5.5 NNE 24 32 13 17 1020.4 1020.4 0.0
24/02:00pm 24.8 22.0 15.4 56 5.7 NNE 24 30 13 16 1020.6 1020.6 0.0
24/01:30pm 24.3 21.4 15.2 57 5.5 NNE 24 30 13 16 1021.0 1021.0 0.0
24/01:00pm 25.2 22.2 15.8 56 5.7 NNE 26 32 14 17 1021.1 1021.1 0.0
24/12:30pm 24.8 21.6 15.4 56 5.7 NNE 26 32 14 17 1021.2 1021.2 0.0
24/12:00pm 24.2 20.9 15.1 56 5.4 NNE 26 32 14 17 1021.4 1021.4 0.0
24/11:30am 24.9 21.3 15.2 54 5.8 NNE 28 33 15 18 1021.5 1021.5 0.0
24/11:00am 24.6 20.9 15.0 55 5.7 NNE 28 32 15 17 1021.9 1021.9 0.0
24/10:30am 24.5 21.4 14.6 54 5.9 NNE 24 32 13 17 1022.3 1022.3 0.0
24/10:00am 24.8 21.5 15.1 54 5.8 N 26 30 14 16 1022.5 1022.5 0.0
24/09:30am 24.2 21.1 14.6 55 5.7 N 24 28 13 15 1022.9 1022.9 0.0
24/09:00am 23.8 21.4 14.5 56 5.5 N 20 28 11 15 1022.9 1022.9 0.0
24/08:30am 23.3 21.2 15.1 60 4.9 N 20 26 11 14 1022.7 1022.7 0.0
24/08:00am 22.8 20.2 13.8 57 5.2 N 20 28 11 15 1022.8 1022.8 0.0
24/07:30am 22.2 20.1 13.5 57 5.0 NNW 17 26 9 14 1022.7 1022.7 0.0
24/07:00am 21.3 20.0 14.9 67 3.8 NW 15 19 8 10 1022.7 1022.7 0.0
24/06:30am 19.7 19.1 14.5 72 3.0 NW 11 15 6 8 1022.6 1022.6 0.0
24/06:00am 19.3 18.6 14.3 73 2.9 NW 11 15 6 8 1022.2 1022.2 0.0
24/05:30am 18.8 18.0 14.1 74 2.7 NW 11 17 6 9 1022.0 1022.0 0.0
24/05:00am 18.8 18.0 13.9 73 2.8 WNW 11 15 6 8 1021.7 1021.7 0.0
24/04:30am 18.6 18.1 13.9 74 2.7 NW 9 15 5 8 1021.4 1021.4 0.0
24/04:00am 18.7 18.2 13.8 73 2.8 NW 9 13 5 7 1021.2 1021.2 0.0
24/03:30am 18.9 18.0 13.7 72 3.0 NW 11 15 6 8 1021.0 1021.0 0.0
24/03:00am 18.9 17.9 13.5 71 3.1 WNW 11 15 6 8 1021.0 1021.0 0.0
24/02:30am 18.9 17.9 13.5 71 3.1 WNW 11 15 6 8 1020.9 1020.9 0.0
24/02:00am 18.8 18.2 13.6 72 3.0 NW 9 13 5 7 1020.8 1020.8 0.0
24/01:30am 18.4 17.8 13.5 73 2.8 WNW 9 13 5 7 1021.0 1021.0 0.0
24/01:00am 18.1 17.5 13.4 74 2.6 WNW 9 13 5 7 1021.2 1021.2 0.0
24/12:30am 17.6 16.6 13.5 77 2.3 WNW 11 13 6 7 1021.5 1021.5 0.0
24/12:00am 17.4 17.0 13.1 76 2.4 NW 7 9 4 5 1021.6 1021.6 0.0
 
Date/Time
EST
Temp
°C
App
Temp
°C
Dew
Point
Rel
Hum
%
Delta-T
°C
Wind Press
QNH
hPa
Press
MSL
hPa
Rain
since 9 am
mm
Dir
 
Spd
km/h
Gust
km/h
Spd
kts
Gust
kts
23/11:30pm 17.5 16.7 13.0 75 2.5 NW 9 11 5 6 1021.9 1021.9 0.0
23/11:00pm 18.6 18.3 13.2 71 3.0 WNW 7 9 4 5 1021.9 1021.9 0.0
23/10:30pm 20.5 18.1 13.9 66 3.8 N 19 26 10 14 1021.9 1021.9 0.0
23/10:00pm 20.2 17.7 13.4 65 3.9 N 19 24 10 13 1021.9 1021.9 0.0
23/09:30pm 20.6 18.0 13.3 63 4.2 N 19 22 10 12 1021.8 1021.8 0.0
23/09:00pm 21.0 18.6 13.9 64 4.1 N 19 24 10 13 1021.7 1021.7 0.0
23/08:30pm 21.0 18.4 13.7 63 4.2 N 20 26 11 14 1021.3 1021.3 0.0
23/08:00pm 20.8 18.7 13.5 63 4.2 N 17 20 9 11 1021.4 1021.4 0.0
23/07:30pm 20.8 18.6 13.3 62 4.3 N 17 20 9 11 1021.0 1021.0 0.0
23/07:00pm 20.9 18.8 13.6 63 4.2 N 17 22 9 12 1020.7 1020.7 0.0
23/06:30pm 21.0 18.6 13.7 63 4.2 N 19 22 10 12 1020.2 1020.2 0.0
23/06:00pm 20.9 19.0 14.1 65 3.9 N 17 20 9 11 1019.9 1019.9 0.0
23/05:30pm 21.2 18.8 13.9 63 4.2 N 19 22 10 12 1019.5 1019.5 0.0
23/05:00pm 21.6 19.0 13.8 61 4.5 N 20 24 11 13 1019.1 1019.1 0.0
23/04:30pm 22.1 19.6 14.0 60 4.7 N 20 24 11 13 1018.8 1018.8 0.0
23/04:00pm 22.7 19.9 13.2 55 5.5 N 20 28 11 15 1018.4 1018.4 0.0
23/03:30pm 22.9 19.4 13.4 55 5.5 N 24 28 13 15 1018.1 1018.1 0.0
23/03:00pm 23.3 19.9 13.8 55 5.5 N 24 32 13 17 1018.1 1018.1 0.0
23/02:30pm 23.7 20.3 13.8 53 5.8 N 24 32 13 17 1018.3 1018.3 0.0
23/02:00pm 23.1 19.3 13.6 55 5.5 N 26 32 14 17 1018.4 1018.4 0.0
23/01:30pm 23.1 19.5 13.0 53 5.8 N 24 30 13 16 1019.0 1019.0 0.0
23/01:00pm 23.2 19.8 13.7 55 5.5 NNE 24 32 13 17 1019.3 1019.3 0.0
23/12:30pm 23.7 20.2 13.3 52 6.0 NNE 24 30 13 16 1019.7 1019.7 0.0
23/12:00pm 23.7 20.2 13.3 52 6.0 NNE 24 30 13 16 1020.2 1020.2 0.0
23/11:30am 23.7 20.1 13.0 51 6.2 NNE 24 30 13 16 1020.5 1020.5 0.0
23/11:00am 22.7 18.8 12.0 50 6.0 NNE 24 32 13 17 1021.0 1021.0 0.0
23/10:30am 23.5 20.2 12.8 51 6.1 N 22 28 12 15 1021.5 1021.5 0.0
23/10:00am 22.6 19.2 12.5 53 5.7 N 22 26 12 14 1022.0 1022.0 0.0
23/09:30am 22.4 18.8 11.8 51 6.0 N 22 26 12 14 1022.2 1022.2 0.0
23/09:00am 21.8 18.7 12.1 54 5.4 N 20 26 11 14 1022.4 1022.4 0.0
23/08:30am 22.1 20.2 12.9 56 5.3 N 15 20 8 11 1022.7 1022.7 0.0
23/08:00am 21.2 20.1 12.1 56 5.1 NNW 9 15 5 8 1022.8 1022.8 0.0
23/07:30am 20.3 19.4 12.5 61 4.4 WSW 9 13 5 7 1022.9 1022.9 0.0
23/07:00am 18.0 17.9 13.3 74 2.6 SW 6 7 3 4 1022.8 1022.8 0.0
23/06:30am 14.7 15.7 13.1 90 0.9 CALM 0 0 0 0 1022.6 1022.6 0.0
23/06:00am 14.2 14.8 13.1 93 0.6 SSW 2 7 1 4 1022.3 1022.3 0.0
23/05:30am 13.3 13.2 12.2 93 0.6 SW 4 9 2 5 1022.2 1022.2 0.0
23/05:10am 12.6 12.6 11.3 92 0.7 SW 2 7 1 4 1022.0 1022.0 0.0
23/05:00am 12.5 12.9 11.2 92 0.7 CALM 0 0 0 0 1021.9 1021.9 0.0
23/04:50am 12.7 13.1 11.4 92 0.7 CALM 0 0 0 0 1021.9 1021.9 0.0
23/04:30am 12.5 11.7 10.9 90 0.8 SW 6 7 3 4 1021.9 1021.9 0.0
23/04:00am 13.9 14.7 12.5 91 0.8 CALM 0 0 0 0 1021.8 1021.8 0.0
23/03:30am 14.3 15.1 12.7 90 0.9 CALM 0 0 0 0 1021.8 1021.8 0.0
23/03:00am 14.0 14.0 12.4 90 0.9 SSW 4 6 2 3 1021.8 1021.8 0.0
23/02:30am 14.0 14.1 12.6 91 0.8 S 4 7 2 4 1021.9 1021.9 0.0
23/02:00am 13.5 12.7 11.7 89 1.0 WSW 7 7 4 4 1022.0 1022.0 0.0
23/01:30am 13.9 14.2 12.1 89 1.0 SSW 2 7 1 4 1022.3 1022.3 0.0
23/01:00am 13.8 13.3 12.0 89 1.0 SSW 6 7 3 4 1022.6 1022.6 0.0
23/12:30am 13.5 13.6 11.6 88 1.0 SW 2 7 1 4 1022.9 1022.9 0.0
23/12:00am 13.9 13.4 11.9 88 1.1 SW 6 9 3 5 1023.1 1023.1 0.0
 
Date/Time
EST
Temp
°C
App
Temp
°C
Dew
Point
Rel
Hum
%
Delta-T
°C
Wind Press
QNH
hPa
Press
MSL
hPa
Rain
since 9 am
mm
Dir
 
Spd
km/h
Gust
km/h
Spd
kts
Gust
kts
22/11:30pm 14.1 14.5 11.3 83 1.5 CALM 0 0 0 0 1023.3 1023.3 0.0
22/11:00pm 15.1 14.6 12.2 83 1.6 SW 6 9 3 5 1023.8 1023.8 0.0
22/10:30pm 15.1 14.6 12.1 82 1.6 SW 6 9 3 5 1023.8 1023.8 0.0
22/10:00pm 15.7 14.8 12.5 81 1.7 SW 9 11 5 6 1023.7 1023.7 0.0
22/09:30pm 15.3 14.4 12.6 84 1.5 WSW 9 13 5 7 1023.8 1023.8 0.0
22/09:00pm 14.6 13.8 11.7 83 1.6 WSW 7 9 4 5 1023.8 1023.8 0.0
22/08:30pm 16.2 15.4 11.6 74 2.5 S 7 9 4 5 1023.9 1023.9 0.0
22/08:00pm 16.8 15.9 11.3 70 3.0 S 7 7 4 4 1023.8 1023.8 0.0
22/07:30pm 17.9 16.7 11.7 67 3.4 S 9 13 5 7 1023.8 1023.8 0.0
22/07:00pm 18.3 17.4 11.4 64 3.7 SSE 7 11 4 6 1023.8 1023.8 0.0
22/06:30pm 19.1 17.7 12.1 64 3.9 SSE 11 13 6 7 1023.6 1023.6 0.0
22/06:00pm 19.1 17.2 11.7 62 4.1 SE 13 15 7 8 1023.5 1023.5 0.0
22/05:30pm 19.6 17.3 11.6 60 4.4 SE 15 22 8 12 1023.4 1023.4 0.0
22/05:00pm 20.1 16.9 11.3 57 4.8 SE 19 24 10 13 1023.3 1023.3 0.0
22/04:30pm 20.5 17.4 11.7 57 4.9 ESE 19 24 10 13 1023.2 1023.2 0.0
22/04:00pm 20.9 17.5 11.3 54 5.3 ESE 20 28 11 15 1023.1 1023.1 0.0
22/03:30pm 21.5 18.3 11.8 54 5.4 ESE 20 30 11 16 1023.2 1023.2 0.0
22/03:00pm 21.9 17.9 11.9 53 5.6 SE 24 33 13 18 1023.1 1023.1 0.0
22/02:30pm 22.7 19.1 12.0 50 6.0 SE 22 33 12 18 1023.3 1023.3 0.0
22/02:00pm 22.0 17.9 11.4 51 5.9 ESE 24 33 13 18 1023.6 1023.6 0.0
22/01:30pm 22.5 17.9 10.9 48 6.4 SE 26 35 14 19 1023.8 1023.8 0.0
22/01:00pm 21.8 17.9 10.9 50 6.0 SE 22 32 12 17 1024.2 1024.2 0.0
22/12:30pm 21.8 17.3 11.5 52 5.7 SE 26 37 14 20 1024.6 1024.6 0.0
22/12:00pm 21.9 17.6 11.9 53 5.6 SE 26 37 14 20 1024.9 1024.9 0.0
22/11:30am 22.5 18.1 11.6 50 6.1 SSE 26 35 14 19 1025.3 1025.3 0.0
22/11:00am 23.0 18.6 11.7 49 6.3 SSE 26 35 14 19 1025.5 1025.5 0.0
22/10:30am 21.5 17.5 10.6 50 6.0 SE 22 30 12 16 1025.7 1025.7 0.0
22/10:00am 21.8 18.6 11.8 53 5.6 S 20 26 11 14 1026.1 1026.1 0.0
22/09:30am 21.5 19.2 12.9 58 4.9 S 17 24 9 13 1026.3 1026.3 0.0
22/09:00am 20.3 17.6 13.5 65 3.9 S 20 28 11 15 1026.4 1026.4 1.2
22/08:30am 20.8 18.5 14.0 65 3.9 S 19 24 10 13 1026.1 1026.1 1.2
22/08:00am 19.5 17.8 13.7 69 3.3 SSW 15 20 8 11 1026.0 1026.0 1.2
22/07:30am 18.7 17.1 14.0 74 2.7 S 15 20 8 11 1026.0 1026.0 1.2
22/07:00am 18.2 16.3 14.1 77 2.3 SSW 17 24 9 13 1025.8 1025.8 1.2
22/06:30am 16.9 14.9 12.8 77 2.3 SSW 15 20 8 11 1025.5 1025.5 1.2
22/06:00am 16.2 14.5 13.5 84 1.5 SSW 15 22 8 12 1025.4 1025.4 1.2
22/05:30am 15.6 14.1 13.1 85 1.4 SSW 13 17 7 9 1025.4 1025.4 1.2
22/05:00am 15.5 13.7 13.3 87 1.2 SSW 15 19 8 10 1025.2 1025.2 1.2
22/04:30am 15.4 14.3 13.1 86 1.3 SSW 11 17 6 9 1025.1 1025.1 1.2
22/04:00am 15.5 14.0 13.2 86 1.3 S 13 20 7 11 1025.2 1025.2 1.2
22/03:30am 15.7 13.9 13.4 86 1.3 SSW 15 22 8 12 1025.2 1025.2 1.2
22/03:00am 15.4 14.1 13.6 89 1.0 SW 13 20 7 11 1025.2 1025.2 1.2
22/02:30am 15.7 14.8 13.7 88 1.1 SSW 11 17 6 9 1025.6 1025.6 1.0
22/02:00am 15.6 15.4 13.6 88 1.1 S 7 11 4 6 1025.9 1025.9 1.0
22/01:30am 15.8 14.2 14.0 89 1.0 SW 15 24 8 13 1026.1 1026.1 1.0
22/01:00am 15.9 14.0 14.1 89 1.0 SSW 17 22 9 12 1026.5 1026.5 1.0
22/12:30am 16.2 14.1 13.7 85 1.4 SSW 17 24 9 13 1026.9 1026.9 1.0
22/12:00am 16.4 15.4 13.3 82 1.7 SSW 11 17 6 9 1027.3 1027.3 1.0
 
Date/Time
EST
Temp
°C
App
Temp
°C
Dew
Point
Rel
Hum
%
Delta-T
°C
Wind Press
QNH
hPa
Press
MSL
hPa
Rain
since 9 am
mm
Dir
 
Spd
km/h
Gust
km/h
Spd
kts
Gust
kts
21/11:30pm 16.8 15.5 13.7 82 1.8 SSW 13 19 7 10 1027.7 1027.7 1.0
21/11:00pm 16.8 14.7 13.7 82 1.7 SSW 17 24 9 13 1027.9 1027.9 1.0
21/10:30pm 16.9 14.5 13.8 82 1.8 S 19 28 10 15 1028.1 1028.1 1.0
21/10:01pm 16.3 15.6 14.3 88 1.1 SSE 11 17 6 9 1028.3 1028.3 1.0
21/10:00pm 16.4 15.3 14.4 88 1.1 SSE 13 19 7 10 1028.3 1028.3 1.0
21/09:50pm 16.5 15.1 14.5 88 1.1 SSE 15 20 8 11 1028.4 1028.4 0.8
21/09:30pm 16.2 15.5 14.4 89 1.0 SSW 11 17 6 9 1028.4 1028.4 0.8
21/09:24pm 16.1 15.0 14.3 89 1.0 S 13 20 7 11 1028.4 1028.4 0.8
21/09:00pm 16.5 15.5 14.7 89 1.0 SSE 13 17 7 9 1028.5 1028.5 0.4
21/08:43pm 16.8 14.4 14.3 85 1.4 SE 20 26 11 14 1028.5 1028.5 0.2
21/08:30pm 17.1 15.1 14.0 82 1.8 S 17 28 9 15 1028.2 1028.2 0.0
21/08:06pm 16.8 14.9 14.1 84 1.5 S 17 22 9 12 1028.2 1028.2 0.0
21/08:00pm 16.6 14.6 13.9 84 1.5 S 17 28 9 15 1028.2 1028.2 0.0
21/07:50pm 16.9 13.2 13.8 82 1.8 SSE 26 39 14 21 1028.5 1028.5 0.0
21/07:30pm 18.7 15.9 13.3 71 3.1 SSE 20 32 11 17 1027.9 1027.9 0.0

Other Formats:

Comma delimited format used in spreadsheet applications
http://www.bom.gov.au/fwo/IDQ60801/IDQ60801.94592.axf

JavaScript Object Notation format (JSON) in row-major order
http://www.bom.gov.au/fwo/IDQ60801/IDQ60801.94592.json